Terminal Aerodrome Forecast
Issued by NWS

Home | Current Version | Previous Version | Text Only | Print | Product List | Glossary On
Versions: 1 2 3 4 5 6 7 8 9 10 11 12 13 14 15 16 17 18 19 20
000
FTUS43 KLSX 010810 AAA
TAFUIN
TAF AMD
KUIN 010810Z 0108/0206 29010KT P6SM VCSH SCT015 OVC080
     FM010900 29011G19KT P6SM OVC015
     FM011500 29019G28KT P6SM BKN015
     FM011800 29021G29KT P6SM BKN035
     FM020300 30008KT P6SM FEW150=

USA.gov is the U.S. government's official web portal to all federal, state and local government web resources and services.